sensor_id;sensor_type;location;lat;lon;timestamp;P1;durP1;ratioP1;P2;durP2;ratioP2
17614;SDS011;8926;49.720;6.576;2022-11-12T00:00:21;11.47;;;10.27;;
17614;SDS011;8926;49.720;6.576;2022-11-12T00:02:46;11.67;;;10.57;;
17614;SDS011;8926;49.720;6.576;2022-11-12T00:05:12;11.37;;;10.37;;
17614;SDS011;8926;49.720;6.576;2022-11-12T00:07:37;9.87;;;8.97;;
17614;SDS011;8926;49.720;6.576;2022-11-12T00:10:03;13.20;;;11.90;;
17614;SDS011;8926;49.720;6.576;2022-11-12T00:12:29;13.53;;;12.23;;
17614;SDS011;8926;49.720;6.576;2022-11-12T00:14:54;19.03;;;16.10;;
17614;SDS011;8926;49.720;6.576;2022-11-12T00:17:19;16.97;;;15.17;;
17614;SDS011;8926;49.720;6.576;2022-11-12T00:19:45;12.97;;;11.77;;
17614;SDS011;8926;49.720;6.576;2022-11-12T00:22:10;11.77;;;10.77;;
17614;SDS011;8926;49.720;6.576;2022-11-12T00:24:35;12.80;;;11.60;;
17614;SDS011;8926;49.720;6.576;2022-11-12T00:27:00;12.80;;;11.63;;
17614;SDS011;8926;49.720;6.576;2022-11-12T00:29:26;13.17;;;11.43;;
17614;SDS011;8926;49.720;6.576;2022-11-12T00:31:51;12.10;;;10.90;;
17614;SDS011;8926;49.720;6.576;2022-11-12T00:34:16;11.67;;;10.67;;
17614;SDS011;8926;49.720;6.576;2022-11-12T00:36:41;13.50;;;12.10;;
17614;SDS011;8926;49.720;6.576;2022-11-12T00:39:07;12.03;;;10.83;;
17614;SDS011;8926;49.720;6.576;2022-11-12T00:41:32;14.23;;;12.37;;
17614;SDS011;8926;49.720;6.576;2022-11-12T00:43:57;15.40;;;13.80;;
17614;SDS011;8926;49.720;6.576;2022-11-12T00:46:23;16.57;;;14.67;;
17614;SDS011;8926;49.720;6.576;2022-11-12T00:48:48;13.77;;;12.30;;
17614;SDS011;8926;49.720;6.576;2022-11-12T00:51:14;15.47;;;13.20;;
17614;SDS011;8926;49.720;6.576;2022-11-12T00:53:39;12.20;;;11.00;;
17614;SDS011;8926;49.720;6.576;2022-11-12T00:56:04;11.63;;;10.63;;
17614;SDS011;8926;49.720;6.576;2022-11-12T00:58:31;14.00;;;12.60;;
17614;SDS011;8926;49.720;6.576;2022-11-12T01:01:03;11.73;;;10.57;;
17614;SDS011;8926;49.720;6.576;2022-11-12T01:03:31;12.27;;;10.97;;
17614;SDS011;8926;49.720;6.576;2022-11-12T01:06:06;10.67;;;9.67;;
17614;SDS011;8926;49.720;6.576;2022-11-12T01:08:34;12.43;;;11.23;;
17614;SDS011;8926;49.720;6.576;2022-11-12T01:11:12;11.27;;;10.10;;
17614;SDS011;8926;49.720;6.576;2022-11-12T01:13:40;9.47;;;8.57;;
17614;SDS011;8926;49.720;6.576;2022-11-12T01:16:11;9.57;;;8.67;;
17614;SDS011;8926;49.720;6.576;2022-11-12T01:18:37;12.03;;;10.83;;
17614;SDS011;8926;49.720;6.576;2022-11-12T01:21:03;11.30;;;10.20;;
17614;SDS011;8926;49.720;6.576;2022-11-12T01:23:31;8.83;;;7.90;;
17614;SDS011;8926;49.720;6.576;2022-11-12T01:26:03;8.77;;;7.97;;
17614;SDS011;8926;49.720;6.576;2022-11-12T01:28:30;8.10;;;7.40;;
17614;SDS011;8926;49.720;6.576;2022-11-12T01:30:55;9.27;;;8.37;;
17614;SDS011;8926;49.720;6.576;2022-11-12T01:33:20;8.77;;;7.97;;
17614;SDS011;8926;49.720;6.576;2022-11-12T01:35:46;9.50;;;8.33;;
17614;SDS011;8926;49.720;6.576;2022-11-12T01:38:11;10.40;;;9.40;;
17614;SDS011;8926;49.720;6.576;2022-11-12T01:40:36;9.13;;;8.30;;
17614;SDS011;8926;49.720;6.576;2022-11-12T01:43:01;8.60;;;7.70;;
17614;SDS011;8926;49.720;6.576;2022-11-12T01:45:27;8.83;;;8.10;;
17614;SDS011;8926;49.720;6.576;2022-11-12T01:47:53;10.37;;;9.37;;
17614;SDS011;8926;49.720;6.576;2022-11-12T01:50:31;9.17;;;8.27;;
17614;SDS011;8926;49.720;6.576;2022-11-12T01:53:00;8.90;;;8.10;;
17614;SDS011;8926;49.720;6.576;2022-11-12T01:55:33;8.60;;;7.80;;
17614;SDS011;8926;49.720;6.576;2022-11-12T01:58:05;7.53;;;6.93;;
17614;SDS011;8926;49.720;6.576;2022-11-12T02:00:34;6.73;;;6.13;;
17614;SDS011;8926;49.720;6.576;2022-11-12T02:03:00;7.30;;;6.60;;
17614;SDS011;8926;49.720;6.576;2022-11-12T02:05:29;7.30;;;6.70;;
17614;SDS011;8926;49.720;6.576;2022-11-12T02:07:56;7.70;;;7.00;;
17614;SDS011;8926;49.720;6.576;2022-11-12T02:10:24;8.17;;;7.47;;
17614;SDS011;8926;49.720;6.576;2022-11-12T02:12:49;8.30;;;7.60;;
17614;SDS011;8926;49.720;6.576;2022-11-12T02:15:36;8.10;;;7.30;;
17614;SDS011;8926;49.720;6.576;2022-11-12T02:18:02;7.90;;;7.20;;
17614;SDS011;8926;49.720;6.576;2022-11-12T02:20:31;7.17;;;6.57;;
17614;SDS011;8926;49.720;6.576;2022-11-12T02:22:58;7.87;;;7.17;;
17614;SDS011;8926;49.720;6.576;2022-11-12T02:25:24;7.53;;;6.83;;
17614;SDS011;8926;49.720;6.576;2022-11-12T02:27:51;7.20;;;6.60;;
17614;SDS011;8926;49.720;6.576;2022-11-12T02:30:29;7.70;;;7.00;;
17614;SDS011;8926;49.720;6.576;2022-11-12T02:32:56;6.47;;;5.97;;
17614;SDS011;8926;49.720;6.576;2022-11-12T02:35:22;6.63;;;6.03;;
17614;SDS011;8926;49.720;6.576;2022-11-12T02:37:47;7.13;;;6.43;;
17614;SDS011;8926;49.720;6.576;2022-11-12T02:40:12;5.87;;;5.37;;
17614;SDS011;8926;49.720;6.576;2022-11-12T02:42:37;6.10;;;5.50;;
17614;SDS011;8926;49.720;6.576;2022-11-12T02:45:03;5.87;;;5.37;;
17614;SDS011;8926;49.720;6.576;2022-11-12T02:47:29;5.37;;;4.93;;
17614;SDS011;8926;49.720;6.576;2022-11-12T02:49:54;5.93;;;5.43;;
17614;SDS011;8926;49.720;6.576;2022-11-12T02:52:19;5.80;;;5.30;;
17614;SDS011;8926;49.720;6.576;2022-11-12T02:54:44;5.57;;;5.17;;
17614;SDS011;8926;49.720;6.576;2022-11-12T02:57:10;6.30;;;5.80;;
17614;SDS011;8926;49.720;6.576;2022-11-12T02:59:35;5.27;;;4.87;;
17614;SDS011;8926;49.720;6.576;2022-11-12T03:02:00;5.23;;;4.83;;
17614;SDS011;8926;49.720;6.576;2022-11-12T03:04:25;6.00;;;5.50;;
17614;SDS011;8926;49.720;6.576;2022-11-12T03:06:51;5.33;;;4.93;;
17614;SDS011;8926;49.720;6.576;2022-11-12T03:09:16;5.23;;;4.83;;
17614;SDS011;8926;49.720;6.576;2022-11-12T03:11:41;5.17;;;4.73;;
17614;SDS011;8926;49.720;6.576;2022-11-12T03:14:07;5.63;;;5.23;;
17614;SDS011;8926;49.720;6.576;2022-11-12T03:16:32;5.93;;;5.50;;
17614;SDS011;8926;49.720;6.576;2022-11-12T03:18:57;6.47;;;5.97;;
17614;SDS011;8926;49.720;6.576;2022-11-12T03:21:23;6.93;;;6.33;;
17614;SDS011;8926;49.720;6.576;2022-11-12T03:23:48;7.43;;;6.90;;
17614;SDS011;8926;49.720;6.576;2022-11-12T03:26:13;6.90;;;6.30;;
17614;SDS011;8926;49.720;6.576;2022-11-12T03:28:38;5.93;;;5.53;;
17614;SDS011;8926;49.720;6.576;2022-11-12T03:31:04;6.10;;;5.60;;
17614;SDS011;8926;49.720;6.576;2022-11-12T03:33:29;5.90;;;5.40;;
17614;SDS011;8926;49.720;6.576;2022-11-12T03:35:54;6.20;;;5.70;;
17614;SDS011;8926;49.720;6.576;2022-11-12T03:38:20;5.13;;;4.73;;
17614;SDS011;8926;49.720;6.576;2022-11-12T03:40:45;5.67;;;5.27;;
17614;SDS011;8926;49.720;6.576;2022-11-12T03:43:10;4.80;;;4.47;;
17614;SDS011;8926;49.720;6.576;2022-11-12T03:45:36;5.40;;;5.00;;
17614;SDS011;8926;49.720;6.576;2022-11-12T03:48:01;5.63;;;5.20;;
17614;SDS011;8926;49.720;6.576;2022-11-12T03:50:28;4.47;;;4.17;;
17614;SDS011;8926;49.720;6.576;2022-11-12T03:52:57;4.13;;;3.83;;
17614;SDS011;8926;49.720;6.576;2022-11-12T03:55:24;4.50;;;4.20;;
17614;SDS011;8926;49.720;6.576;2022-11-12T03:57:52;4.50;;;4.10;;
17614;SDS011;8926;49.720;6.576;2022-11-12T04:00:18;4.07;;;3.77;;
17614;SDS011;8926;49.720;6.576;2022-11-12T04:02:45;3.87;;;3.57;;
17614;SDS011;8926;49.720;6.576;2022-11-12T04:05:11;3.90;;;3.60;;
17614;SDS011;8926;49.720;6.576;2022-11-12T04:07:59;4.37;;;4.07;;
17614;SDS011;8926;49.720;6.576;2022-11-12T04:10:44;4.73;;;4.33;;
17614;SDS011;8926;49.720;6.576;2022-11-12T04:13:10;4.50;;;4.10;;
17614;SDS011;8926;49.720;6.576;2022-11-12T04:16:03;5.57;;;5.10;;
17614;SDS011;8926;49.720;6.576;2022-11-12T04:18:50;4.40;;;4.10;;
17614;SDS011;8926;49.720;6.576;2022-11-12T04:21:37;5.27;;;4.87;;
17614;SDS011;8926;49.720;6.576;2022-11-12T04:24:25;4.60;;;4.30;;
17614;SDS011;8926;49.720;6.576;2022-11-12T04:27:21;4.50;;;4.10;;
17614;SDS011;8926;49.720;6.576;2022-11-12T04:29:51;5.97;;;5.47;;
17614;SDS011;8926;49.720;6.576;2022-11-12T04:32:37;4.87;;;4.47;;
17614;SDS011;8926;49.720;6.576;2022-11-12T04:35:04;4.63;;;4.33;;
17614;SDS011;8926;49.720;6.576;2022-11-12T04:37:31;5.53;;;5.13;;
17614;SDS011;8926;49.720;6.576;2022-11-12T04:42:54;4.30;;;4.00;;
17614;SDS011;8926;49.720;6.576;2022-11-12T04:45:39;4.50;;;4.20;;
17614;SDS011;8926;49.720;6.576;2022-11-12T04:48:07;4.50;;;4.20;;
17614;SDS011;8926;49.720;6.576;2022-11-12T04:50:32;4.60;;;4.30;;
17614;SDS011;8926;49.720;6.576;2022-11-12T04:52:58;4.70;;;4.30;;
17614;SDS011;8926;49.720;6.576;2022-11-12T04:55:23;4.27;;;3.97;;
17614;SDS011;8926;49.720;6.576;2022-11-12T04:57:49;5.10;;;4.70;;
17614;SDS011;8926;49.720;6.576;2022-11-12T05:00:14;4.50;;;4.20;;
17614;SDS011;8926;49.720;6.576;2022-11-12T05:02:40;4.60;;;4.30;;
17614;SDS011;8926;49.720;6.576;2022-11-12T05:05:05;4.27;;;3.97;;
17614;SDS011;8926;49.720;6.576;2022-11-12T05:07:31;4.00;;;3.70;;
17614;SDS011;8926;49.720;6.576;2022-11-12T05:09:57;3.53;;;3.33;;
17614;SDS011;8926;49.720;6.576;2022-11-12T05:12:22;3.53;;;3.33;;
17614;SDS011;8926;49.720;6.576;2022-11-12T05:14:47;3.60;;;3.40;;
17614;SDS011;8926;49.720;6.576;2022-11-12T05:17:13;3.53;;;3.33;;
17614;SDS011;8926;49.720;6.576;2022-11-12T05:19:38;3.73;;;3.47;;
17614;SDS011;8926;49.720;6.576;2022-11-12T05:22:03;3.77;;;3.47;;
17614;SDS011;8926;49.720;6.576;2022-11-12T05:24:35;3.70;;;3.40;;
17614;SDS011;8926;49.720;6.576;2022-11-12T05:27:06;3.93;;;3.63;;
17614;SDS011;8926;49.720;6.576;2022-11-12T05:29:37;4.00;;;3.70;;
17614;SDS011;8926;49.720;6.576;2022-11-12T05:32:03;4.80;;;4.40;;
17614;SDS011;8926;49.720;6.576;2022-11-12T05:34:29;5.23;;;4.83;;
17614;SDS011;8926;49.720;6.576;2022-11-12T05:36:55;4.83;;;4.53;;
17614;SDS011;8926;49.720;6.576;2022-11-12T05:39:20;4.60;;;4.30;;
17614;SDS011;8926;49.720;6.576;2022-11-12T05:41:46;5.90;;;5.40;;
17614;SDS011;8926;49.720;6.576;2022-11-12T05:44:11;6.60;;;6.00;;
17614;SDS011;8926;49.720;6.576;2022-11-12T05:46:37;5.87;;;5.47;;
17614;SDS011;8926;49.720;6.576;2022-11-12T05:49:02;4.87;;;4.57;;
17614;SDS011;8926;49.720;6.576;2022-11-12T05:51:27;5.17;;;4.77;;
17614;SDS011;8926;49.720;6.576;2022-11-12T05:53:53;4.80;;;4.40;;
17614;SDS011;8926;49.720;6.576;2022-11-12T05:56:18;4.83;;;4.43;;
17614;SDS011;8926;49.720;6.576;2022-11-12T05:58:43;4.47;;;4.17;;
17614;SDS011;8926;49.720;6.576;2022-11-12T06:01:08;4.63;;;4.23;;
17614;SDS011;8926;49.720;6.576;2022-11-12T06:03:34;4.83;;;4.53;;
17614;SDS011;8926;49.720;6.576;2022-11-12T06:05:59;4.80;;;4.40;;
17614;SDS011;8926;49.720;6.576;2022-11-12T06:08:24;4.03;;;3.73;;
17614;SDS011;8926;49.720;6.576;2022-11-12T06:10:53;3.67;;;3.37;;
17614;SDS011;8926;49.720;6.576;2022-11-12T06:13:19;4.03;;;3.73;;
17614;SDS011;8926;49.720;6.576;2022-11-12T06:15:46;5.53;;;5.13;;
17614;SDS011;8926;49.720;6.576;2022-11-12T06:18:11;5.30;;;4.90;;
17614;SDS011;8926;49.720;6.576;2022-11-12T06:20:37;6.40;;;5.90;;
17614;SDS011;8926;49.720;6.576;2022-11-12T06:23:02;6.27;;;5.77;;
17614;SDS011;8926;49.720;6.576;2022-11-12T06:25:27;6.63;;;6.03;;
17614;SDS011;8926;49.720;6.576;2022-11-12T06:27:53;6.47;;;5.87;;
17614;SDS011;8926;49.720;6.576;2022-11-12T06:30:18;7.10;;;6.50;;
17614;SDS011;8926;49.720;6.576;2022-11-12T06:32:47;5.93;;;5.43;;
17614;SDS011;8926;49.720;6.576;2022-11-12T06:35:13;6.37;;;5.77;;
17614;SDS011;8926;49.720;6.576;2022-11-12T06:37:40;5.97;;;5.57;;
17614;SDS011;8926;49.720;6.576;2022-11-12T06:40:05;5.47;;;5.07;;
17614;SDS011;8926;49.720;6.576;2022-11-12T06:42:31;5.03;;;4.63;;
17614;SDS011;8926;49.720;6.576;2022-11-12T06:44:57;6.30;;;5.80;;
17614;SDS011;8926;49.720;6.576;2022-11-12T06:47:22;6.43;;;5.93;;
17614;SDS011;8926;49.720;6.576;2022-11-12T06:49:47;7.33;;;6.27;;
17614;SDS011;8926;49.720;6.576;2022-11-12T06:52:13;6.20;;;5.70;;
17614;SDS011;8926;49.720;6.576;2022-11-12T06:54:39;6.53;;;5.93;;
17614;SDS011;8926;49.720;6.576;2022-11-12T06:57:04;5.47;;;4.97;;
17614;SDS011;8926;49.720;6.576;2022-11-12T06:59:30;5.00;;;4.50;;
17614;SDS011;8926;49.720;6.576;2022-11-12T07:01:55;4.87;;;4.47;;
17614;SDS011;8926;49.720;6.576;2022-11-12T07:04:20;5.47;;;4.97;;
17614;SDS011;8926;49.720;6.576;2022-11-12T07:06:46;6.13;;;5.63;;
17614;SDS011;8926;49.720;6.576;2022-11-12T07:09:11;5.40;;;5.00;;
17614;SDS011;8926;49.720;6.576;2022-11-12T07:11:36;6.50;;;5.90;;
17614;SDS011;8926;49.720;6.576;2022-11-12T07:14:04;5.60;;;5.20;;
17614;SDS011;8926;49.720;6.576;2022-11-12T07:16:32;6.17;;;5.67;;
17614;SDS011;8926;49.720;6.576;2022-11-12T07:18:58;5.67;;;4.73;;
17614;SDS011;8926;49.720;6.576;2022-11-12T07:21:23;4.13;;;3.83;;
17614;SDS011;8926;49.720;6.576;2022-11-12T07:23:48;4.60;;;4.30;;
17614;SDS011;8926;49.720;6.576;2022-11-12T07:26:15;3.70;;;3.50;;
17614;SDS011;8926;49.720;6.576;2022-11-12T07:28:42;3.83;;;3.53;;
17614;SDS011;8926;49.720;6.576;2022-11-12T07:31:09;3.77;;;3.47;;
17614;SDS011;8926;49.720;6.576;2022-11-12T07:33:35;5.27;;;4.77;;
17614;SDS011;8926;49.720;6.576;2022-11-12T07:38:37;4.00;;;3.70;;
17614;SDS011;8926;49.720;6.576;2022-11-12T07:41:23;4.07;;;3.77;;
17614;SDS011;8926;49.720;6.576;2022-11-12T07:43:49;4.60;;;4.30;;
17614;SDS011;8926;49.720;6.576;2022-11-12T07:46:16;3.97;;;3.67;;
17614;SDS011;8926;49.720;6.576;2022-11-12T07:48:43;4.27;;;3.97;;
17614;SDS011;8926;49.720;6.576;2022-11-12T07:51:13;4.47;;;4.17;;
17614;SDS011;8926;49.720;6.576;2022-11-12T07:53:42;4.13;;;3.77;;
17614;SDS011;8926;49.720;6.576;2022-11-12T07:56:09;3.10;;;2.90;;
17614;SDS011;8926;49.720;6.576;2022-11-12T07:58:36;3.20;;;3.00;;
17614;SDS011;8926;49.720;6.576;2022-11-12T08:03:57;2.97;;;2.77;;
17614;SDS011;8926;49.720;6.576;2022-11-12T08:06:27;3.50;;;3.30;;
17614;SDS011;8926;49.720;6.576;2022-11-12T08:08:54;3.33;;;3.13;;
17614;SDS011;8926;49.720;6.576;2022-11-12T08:11:20;3.10;;;2.90;;
17614;SDS011;8926;49.720;6.576;2022-11-12T08:13:46;3.30;;;3.10;;
17614;SDS011;8926;49.720;6.576;2022-11-12T08:16:11;3.50;;;3.30;;
17614;SDS011;8926;49.720;6.576;2022-11-12T08:18:37;3.80;;;3.50;;
17614;SDS011;8926;49.720;6.576;2022-11-12T08:21:03;3.50;;;3.30;;
17614;SDS011;8926;49.720;6.576;2022-11-12T08:23:30;3.97;;;3.77;;
17614;SDS011;8926;49.720;6.576;2022-11-12T08:25:59;3.83;;;3.63;;
17614;SDS011;8926;49.720;6.576;2022-11-12T08:28:26;3.53;;;3.33;;
17614;SDS011;8926;49.720;6.576;2022-11-12T08:30:53;3.63;;;3.43;;
17614;SDS011;8926;49.720;6.576;2022-11-12T08:33:18;3.93;;;3.63;;
17614;SDS011;8926;49.720;6.576;2022-11-12T08:35:43;3.50;;;3.30;;
17614;SDS011;8926;49.720;6.576;2022-11-12T08:38:09;3.67;;;3.37;;
17614;SDS011;8926;49.720;6.576;2022-11-12T08:40:35;4.47;;;4.17;;
17614;SDS011;8926;49.720;6.576;2022-11-12T08:43:02;4.83;;;4.53;;
17614;SDS011;8926;49.720;6.576;2022-11-12T08:45:30;4.10;;;3.80;;
17614;SDS011;8926;49.720;6.576;2022-11-12T08:47:57;3.60;;;3.40;;
17614;SDS011;8926;49.720;6.576;2022-11-12T08:50:27;3.57;;;3.37;;
17614;SDS011;8926;49.720;6.576;2022-11-12T08:52:56;2.93;;;2.73;;
17614;SDS011;8926;49.720;6.576;2022-11-12T08:55:23;4.40;;;4.10;;
17614;SDS011;8926;49.720;6.576;2022-11-12T08:57:48;4.40;;;4.10;;
17614;SDS011;8926;49.720;6.576;2022-11-12T09:00:14;4.47;;;4.17;;
17614;SDS011;8926;49.720;6.576;2022-11-12T09:02:39;3.90;;;3.60;;
17614;SDS011;8926;49.720;6.576;2022-11-12T09:05:05;4.07;;;3.77;;
17614;SDS011;8926;49.720;6.576;2022-11-12T09:07:30;3.10;;;2.90;;
17614;SDS011;8926;49.720;6.576;2022-11-12T09:09:56;2.73;;;2.60;;
17614;SDS011;8926;49.720;6.576;2022-11-12T09:12:22;2.40;;;2.30;;
17614;SDS011;8926;49.720;6.576;2022-11-12T09:14:47;4.20;;;3.90;;
17614;SDS011;8926;49.720;6.576;2022-11-12T09:17:13;3.53;;;3.33;;
17614;SDS011;8926;49.720;6.576;2022-11-12T09:19:38;3.50;;;3.30;;
17614;SDS011;8926;49.720;6.576;2022-11-12T09:22:04;3.00;;;2.80;;
17614;SDS011;8926;49.720;6.576;2022-11-12T09:24:29;3.13;;;2.93;;
17614;SDS011;8926;49.720;6.576;2022-11-12T09:26:54;3.10;;;2.90;;
17614;SDS011;8926;49.720;6.576;2022-11-12T09:29:20;3.90;;;3.60;;
17614;SDS011;8926;49.720;6.576;2022-11-12T09:31:45;4.93;;;4.53;;
17614;SDS011;8926;49.720;6.576;2022-11-12T09:34:11;4.33;;;4.03;;
17614;SDS011;8926;49.720;6.576;2022-11-12T09:36:37;5.33;;;4.83;;
17614;SDS011;8926;49.720;6.576;2022-11-12T09:39:02;4.60;;;4.30;;
17614;SDS011;8926;49.720;6.576;2022-11-12T09:41:35;4.40;;;4.10;;
17614;SDS011;8926;49.720;6.576;2022-11-12T09:44:03;4.50;;;4.20;;
17614;SDS011;8926;49.720;6.576;2022-11-12T09:46:35;4.87;;;4.57;;
17614;SDS011;8926;49.720;6.576;2022-11-12T09:49:23;4.03;;;3.80;;
17614;SDS011;8926;49.720;6.576;2022-11-12T09:51:54;3.87;;;3.57;;
17614;SDS011;8926;49.720;6.576;2022-11-12T09:54:30;3.40;;;3.20;;
17614;SDS011;8926;49.720;6.576;2022-11-12T09:56:57;3.50;;;3.30;;
17614;SDS011;8926;49.720;6.576;2022-11-12T09:59:23;4.17;;;3.87;;
17614;SDS011;8926;49.720;6.576;2022-11-12T10:11:12;5.60;;;5.20;;
17614;SDS011;8926;49.720;6.576;2022-11-12T10:14:07;5.70;;;5.30;;
17614;SDS011;8926;49.720;6.576;2022-11-12T10:22:32;4.33;;;4.03;;
17614;SDS011;8926;49.720;6.576;2022-11-12T10:25:12;4.40;;;4.10;;
17614;SDS011;8926;49.720;6.576;2022-11-12T10:27:40;5.10;;;4.70;;
17614;SDS011;8926;49.720;6.576;2022-11-12T10:30:12;4.60;;;4.30;;
17614;SDS011;8926;49.720;6.576;2022-11-12T10:32:41;5.17;;;4.77;;
17614;SDS011;8926;49.720;6.576;2022-11-12T10:35:09;6.37;;;5.87;;
17614;SDS011;8926;49.720;6.576;2022-11-12T10:40:27;4.60;;;4.30;;
17614;SDS011;8926;49.720;6.576;2022-11-12T10:42:56;5.00;;;4.60;;
17614;SDS011;8926;49.720;6.576;2022-11-12T10:45:25;4.20;;;3.90;;
17614;SDS011;8926;49.720;6.576;2022-11-12T10:47:51;4.00;;;3.70;;
17614;SDS011;8926;49.720;6.576;2022-11-12T10:50:20;3.60;;;3.40;;
17614;SDS011;8926;49.720;6.576;2022-11-12T10:53:02;4.10;;;3.80;;
17614;SDS011;8926;49.720;6.576;2022-11-12T10:55:30;3.23;;;3.03;;
17614;SDS011;8926;49.720;6.576;2022-11-12T11:00:57;3.27;;;3.07;;
17614;SDS011;8926;49.720;6.576;2022-11-12T11:03:43;3.80;;;3.57;;
17614;SDS011;8926;49.720;6.576;2022-11-12T11:08:41;5.47;;;5.07;;
17614;SDS011;8926;49.720;6.576;2022-11-12T11:11:21;6.30;;;5.80;;
17614;SDS011;8926;49.720;6.576;2022-11-12T11:13:53;5.47;;;5.07;;
17614;SDS011;8926;49.720;6.576;2022-11-12T11:19:14;4.70;;;4.40;;
17614;SDS011;8926;49.720;6.576;2022-11-12T11:30:08;4.67;;;4.37;;
17614;SDS011;8926;49.720;6.576;2022-11-12T11:41:36;3.70;;;3.50;;
17614;SDS011;8926;49.720;6.576;2022-11-12T11:46:53;3.40;;;3.20;;
17614;SDS011;8926;49.720;6.576;2022-11-12T11:58:13;4.83;;;4.43;;
17614;SDS011;8926;49.720;6.576;2022-11-12T12:00:54;4.07;;;3.77;;
17614;SDS011;8926;49.720;6.576;2022-11-12T12:06:25;3.43;;;3.23;;
17614;SDS011;8926;49.720;6.576;2022-11-12T12:09:06;3.23;;;3.03;;
17614;SDS011;8926;49.720;6.576;2022-11-12T12:17:40;3.67;;;3.40;;
17614;SDS011;8926;49.720;6.576;2022-11-12T12:20:23;4.73;;;4.43;;
17614;SDS011;8926;49.720;6.576;2022-11-12T12:23:04;5.10;;;4.77;;
17614;SDS011;8926;49.720;6.576;2022-11-12T12:25:35;4.63;;;4.33;;
17614;SDS011;8926;49.720;6.576;2022-11-12T12:30:44;4.70;;;4.40;;
17614;SDS011;8926;49.720;6.576;2022-11-12T12:33:29;4.67;;;4.37;;
17614;SDS011;8926;49.720;6.576;2022-11-12T12:36:02;6.67;;;6.17;;
17614;SDS011;8926;49.720;6.576;2022-11-12T12:41:30;5.13;;;4.80;;
17614;SDS011;8926;49.720;6.576;2022-11-12T12:44:07;4.40;;;4.10;;
17614;SDS011;8926;49.720;6.576;2022-11-12T12:46:54;4.73;;;4.43;;
17614;SDS011;8926;49.720;6.576;2022-11-12T12:49:28;4.70;;;4.30;;
17614;SDS011;8926;49.720;6.576;2022-11-12T12:51:58;5.30;;;4.90;;
17614;SDS011;8926;49.720;6.576;2022-11-12T12:54:53;6.23;;;5.83;;
17614;SDS011;8926;49.720;6.576;2022-11-12T12:57:29;5.10;;;4.70;;
17614;SDS011;8926;49.720;6.576;2022-11-12T13:02:57;5.93;;;5.53;;
17614;SDS011;8926;49.720;6.576;2022-11-12T13:05:30;5.77;;;5.37;;
17614;SDS011;8926;49.720;6.576;2022-11-12T13:07:59;5.90;;;5.50;;
17614;SDS011;8926;49.720;6.576;2022-11-12T13:13:04;5.83;;;5.43;;
17614;SDS011;8926;49.720;6.576;2022-11-12T13:15:40;6.80;;;6.40;;
17614;SDS011;8926;49.720;6.576;2022-11-12T13:18:07;5.80;;;5.40;;
17614;SDS011;8926;49.720;6.576;2022-11-12T13:20:35;5.90;;;5.50;;
17614;SDS011;8926;49.720;6.576;2022-11-12T13:23:02;6.53;;;6.03;;
17614;SDS011;8926;49.720;6.576;2022-11-12T13:25:32;7.47;;;6.87;;
17614;SDS011;8926;49.720;6.576;2022-11-12T13:43:41;5.17;;;4.83;;
17614;SDS011;8926;49.720;6.576;2022-11-12T13:51:37;5.00;;;4.60;;
17614;SDS011;8926;49.720;6.576;2022-11-12T13:54:25;4.70;;;4.40;;
17614;SDS011;8926;49.720;6.576;2022-11-12T13:56:52;4.20;;;3.90;;
17614;SDS011;8926;49.720;6.576;2022-11-12T13:59:19;4.77;;;4.47;;
17614;SDS011;8926;49.720;6.576;2022-11-12T14:01:47;4.47;;;4.17;;
17614;SDS011;8926;49.720;6.576;2022-11-12T14:04:14;4.87;;;4.53;;
17614;SDS011;8926;49.720;6.576;2022-11-12T14:06:44;4.30;;;4.00;;
17614;SDS011;8926;49.720;6.576;2022-11-12T14:18:10;4.10;;;3.87;;
17614;SDS011;8926;49.720;6.576;2022-11-12T14:20:44;4.13;;;3.90;;
17614;SDS011;8926;49.720;6.576;2022-11-12T14:23:11;4.27;;;3.97;;
17614;SDS011;8926;49.720;6.576;2022-11-12T14:25:46;4.53;;;4.13;;
17614;SDS011;8926;49.720;6.576;2022-11-12T14:28:28;4.73;;;4.33;;
17614;SDS011;8926;49.720;6.576;2022-11-12T14:30:56;4.93;;;4.63;;
17614;SDS011;8926;49.720;6.576;2022-11-12T14:33:23;4.73;;;4.43;;
17614;SDS011;8926;49.720;6.576;2022-11-12T14:35:53;4.40;;;4.10;;
17614;SDS011;8926;49.720;6.576;2022-11-12T14:38:31;4.40;;;4.10;;
17614;SDS011;8926;49.720;6.576;2022-11-12T14:41:14;3.80;;;3.50;;
17614;SDS011;8926;49.720;6.576;2022-11-12T14:43:47;3.50;;;3.30;;
17614;SDS011;8926;49.720;6.576;2022-11-12T14:46:35;3.30;;;3.10;;
17614;SDS011;8926;49.720;6.576;2022-11-12T14:49:14;2.60;;;2.50;;
17614;SDS011;8926;49.720;6.576;2022-11-12T14:51:46;3.00;;;2.80;;
17614;SDS011;8926;49.720;6.576;2022-11-12T14:54:27;3.07;;;2.87;;
17614;SDS011;8926;49.720;6.576;2022-11-12T14:56:55;3.10;;;2.90;;
17614;SDS011;8926;49.720;6.576;2022-11-12T14:59:23;3.00;;;2.80;;
17614;SDS011;8926;49.720;6.576;2022-11-12T15:04:41;3.50;;;3.30;;
17614;SDS011;8926;49.720;6.576;2022-11-12T15:09:54;3.30;;;3.10;;
17614;SDS011;8926;49.720;6.576;2022-11-12T15:12:20;3.43;;;3.23;;
17614;SDS011;8926;49.720;6.576;2022-11-12T15:14:49;3.13;;;2.93;;
17614;SDS011;8926;49.720;6.576;2022-11-12T15:17:30;3.17;;;2.97;;
17614;SDS011;8926;49.720;6.576;2022-11-12T15:20:04;2.90;;;2.80;;
17614;SDS011;8926;49.720;6.576;2022-11-12T15:22:36;2.83;;;2.63;;
17614;SDS011;8926;49.720;6.576;2022-11-12T15:27:51;2.63;;;2.53;;
17614;SDS011;8926;49.720;6.576;2022-11-12T15:33:35;3.20;;;3.00;;
17614;SDS011;8926;49.720;6.576;2022-11-12T15:35:36;3.07;;;2.90;;
17614;SDS011;8926;49.720;6.576;2022-11-12T15:38:09;2.73;;;2.53;;
17614;SDS011;8926;49.720;6.576;2022-11-12T15:40:51;3.43;;;3.23;;
17614;SDS011;8926;49.720;6.576;2022-11-12T15:43:20;3.77;;;3.50;;
17614;SDS011;8926;49.720;6.576;2022-11-12T15:45:48;3.90;;;3.70;;
17614;SDS011;8926;49.720;6.576;2022-11-12T15:48:15;3.60;;;3.40;;
17614;SDS011;8926;49.720;6.576;2022-11-12T15:50:41;3.33;;;3.13;;
17614;SDS011;8926;49.720;6.576;2022-11-12T15:53:06;3.07;;;2.90;;
17614;SDS011;8926;49.720;6.576;2022-11-12T15:55:31;3.43;;;3.23;;
17614;SDS011;8926;49.720;6.576;2022-11-12T15:57:58;3.60;;;3.40;;
17614;SDS011;8926;49.720;6.576;2022-11-12T16:00:34;3.17;;;3.00;;
17614;SDS011;8926;49.720;6.576;2022-11-12T16:03:10;3.40;;;3.20;;
17614;SDS011;8926;49.720;6.576;2022-11-12T16:05:36;5.70;;;5.30;;
17614;SDS011;8926;49.720;6.576;2022-11-12T16:08:01;7.03;;;6.53;;
17614;SDS011;8926;49.720;6.576;2022-11-12T16:10:26;5.47;;;5.07;;
17614;SDS011;8926;49.720;6.576;2022-11-12T16:12:52;5.63;;;5.23;;
17614;SDS011;8926;49.720;6.576;2022-11-12T16:15:22;5.57;;;5.17;;
17614;SDS011;8926;49.720;6.576;2022-11-12T16:17:50;5.60;;;5.20;;
17614;SDS011;8926;49.720;6.576;2022-11-12T16:20:18;6.37;;;5.87;;
17614;SDS011;8926;49.720;6.576;2022-11-12T16:22:48;6.57;;;6.07;;
17614;SDS011;8926;49.720;6.576;2022-11-12T16:25:14;5.70;;;5.30;;
17614;SDS011;8926;49.720;6.576;2022-11-12T16:27:40;5.10;;;4.70;;
17614;SDS011;8926;49.720;6.576;2022-11-12T16:30:12;5.70;;;5.20;;
17614;SDS011;8926;49.720;6.576;2022-11-12T16:32:42;5.17;;;4.77;;
17614;SDS011;8926;49.720;6.576;2022-11-12T16:35:07;5.40;;;5.00;;
17614;SDS011;8926;49.720;6.576;2022-11-12T16:37:33;4.87;;;4.57;;
17614;SDS011;8926;49.720;6.576;2022-11-12T16:39:59;4.23;;;3.93;;
17614;SDS011;8926;49.720;6.576;2022-11-12T16:42:24;4.47;;;4.17;;
17614;SDS011;8926;49.720;6.576;2022-11-12T16:44:49;6.13;;;5.73;;
17614;SDS011;8926;49.720;6.576;2022-11-12T16:47:14;5.53;;;5.13;;
17614;SDS011;8926;49.720;6.576;2022-11-12T16:49:40;6.57;;;6.10;;
17614;SDS011;8926;49.720;6.576;2022-11-12T16:52:07;7.03;;;6.57;;
17614;SDS011;8926;49.720;6.576;2022-11-12T16:54:33;6.97;;;6.50;;
17614;SDS011;8926;49.720;6.576;2022-11-12T16:56:58;6.00;;;5.60;;
17614;SDS011;8926;49.720;6.576;2022-11-12T16:59:24;6.33;;;5.83;;
17614;SDS011;8926;49.720;6.576;2022-11-12T17:01:49;5.53;;;5.13;;
17614;SDS011;8926;49.720;6.576;2022-11-12T17:04:14;6.90;;;6.40;;
17614;SDS011;8926;49.720;6.576;2022-11-12T17:06:39;5.73;;;5.33;;
17614;SDS011;8926;49.720;6.576;2022-11-12T17:09:06;6.37;;;5.97;;
17614;SDS011;8926;49.720;6.576;2022-11-12T17:11:34;6.07;;;5.67;;